Time;durP1;ratioP1;P1;durP2;ratioP2;P2;SDS_P1;SDS_P2;PMS_P1;PMS_P2;Temp;Humidity;BMP_temperature;BMP_pressure;BME280_temperature;BME280_humidity;BME280_pressure;Samples;Min_cycle;Max_cycle;Signal;HPM_P1;HPM_P2
2021/11/27 00:01:10;;;;;;;1.70;1.10;;;5.40;99.90;;;;;;4055252;29;20241;-91
2021/11/27 00:03:12;;;;;;;2.33;1.33;;;5.40;99.90;;;;;;4052989;29;20181;-91
2021/11/27 00:05:14;;;;;;;1.87;1.30;;;5.30;99.90;;;;;;4070316;29;20272;-91
2021/11/27 00:07:15;;;;;;;4.13;1.20;;;5.30;99.90;;;;;;4053579;29;20176;-91
2021/11/27 00:09:16;;;;;;;2.10;1.30;;;5.30;99.90;;;;;;4052771;29;20181;-91
2021/11/27 00:11:17;;;;;;;1.60;1.20;;;5.30;99.90;;;;;;4070139;29;20215;-91
2021/11/27 00:13:20;;;;;;;2.77;1.60;;;5.30;99.90;;;;;;4070025;29;20209;-90
2021/11/27 00:15:22;;;;;;;6.03;1.40;;;5.20;99.90;;;;;;4053057;29;20201;-90
2021/11/27 00:17:23;;;;;;;3.33;1.40;;;5.20;99.90;;;;;;4068202;29;20268;-91
2021/11/27 00:19:24;;;;;;;2.30;1.33;;;5.20;99.90;;;;;;4052926;29;20225;-91
2021/11/27 00:21:25;;;;;;;2.93;1.60;;;5.10;99.90;;;;;;4052714;29;20188;-90
2021/11/27 00:23:28;;;;;;;2.93;1.53;;;5.10;99.90;;;;;;4053508;29;20237;-91
2021/11/27 00:25:29;;;;;;;3.87;1.57;;;5.10;99.90;;;;;;4068135;29;20287;-91
2021/11/27 00:27:30;;;;;;;1.47;1.33;;;5.10;99.90;;;;;;4055358;29;20209;-91
2021/11/27 00:29:31;;;;;;;2.03;1.30;;;5.10;99.90;;;;;;4052517;29;20210;-91
2021/11/27 00:31:32;;;;;;;2.57;1.17;;;5.20;99.90;;;;;;4068247;29;20180;-92
2021/11/27 00:33:33;;;;;;;1.63;1.33;;;5.30;99.90;;;;;;4052564;29;20658;-91
2021/11/27 00:35:34;;;;;;;2.67;1.60;;;5.40;99.90;;;;;;4052958;29;20694;-91
2021/11/27 00:37:35;;;;;;;1.60;1.20;;;5.40;99.90;;;;;;4053828;29;20185;-92
2021/11/27 00:39:36;;;;;;;3.07;1.47;;;5.40;99.90;;;;;;4052562;29;20181;-91
2021/11/27 00:41:37;;;;;;;5.13;1.70;;;5.50;99.90;;;;;;4068197;29;20183;-91
2021/11/27 00:43:38;;;;;;;2.87;1.50;;;5.50;99.90;;;;;;4052351;29;20185;-91
2021/11/27 00:45:40;;;;;;;2.03;1.50;;;5.40;99.90;;;;;;4052973;29;20172;-91
2021/11/27 00:47:43;;;;;;;3.63;1.60;;;5.40;99.90;;;;;;4055147;29;20247;-91
2021/11/27 00:49:44;;;;;;;2.33;1.77;;;5.20;99.90;;;;;;4055243;29;20177;-91
2021/11/27 00:51:46;;;;;;;2.53;1.60;;;5.20;99.90;;;;;;4055565;29;20177;-92
2021/11/27 00:53:47;;;;;;;3.20;1.60;;;5.20;99.90;;;;;;4056695;29;20180;-91
2021/11/27 00:55:49;;;;;;;3.37;1.77;;;5.20;99.90;;;;;;4070525;29;20184;-92
2021/11/27 00:57:50;;;;;;;2.83;1.50;;;5.20;99.90;;;;;;4056508;29;20212;-95
2021/11/27 00:59:51;;;;;;;3.10;1.43;;;5.10;99.90;;;;;;4056811;29;20200;-91
2021/11/27 01:01:53;;;;;;;3.70;1.80;;;5.10;99.90;;;;;;4057036;29;20184;-91
2021/11/27 01:03:54;;;;;;;5.93;2.00;;;5.10;99.90;;;;;;4055242;29;20233;-91
2021/11/27 01:05:57;;;;;;;3.37;1.83;;;5.10;99.90;;;;;;4054978;29;20181;-92
2021/11/27 01:07:58;;;;;;;5.20;2.27;;;4.90;99.90;;;;;;4055751;29;20239;-91
2021/11/27 01:09:59;;;;;;;3.37;1.90;;;4.90;99.90;;;;;;4056603;29;20187;-91
2021/11/27 01:12:00;;;;;;;7.43;2.10;;;4.90;99.90;;;;;;4055471;29;20213;-91
2021/11/27 01:14:07;;;;;;;4.30;1.60;;;4.80;99.90;;;;;;4055149;29;20196;-91
2021/11/27 01:16:09;;;;;;;4.10;1.87;;;4.60;99.90;;;;;;4055342;29;20173;-91
2021/11/27 01:18:10;;;;;;;5.43;1.80;;;4.60;99.90;;;;;;4054705;29;20693;-91
2021/11/27 01:20:14;;;;;;;3.27;1.60;;;4.60;99.90;;;;;;4054710;29;20177;-91
2021/11/27 01:22:19;;;;;;;3.40;1.93;;;4.50;99.90;;;;;;4054802;29;20181;-95
2021/11/27 01:24:20;;;;;;;3.80;1.93;;;4.50;99.90;;;;;;4054768;29;20274;-91
2021/11/27 01:26:22;;;;;;;5.00;1.77;;;4.50;99.90;;;;;;4055103;29;20237;-91
2021/11/27 01:28:24;;;;;;;4.10;2.00;;;4.50;99.90;;;;;;4056866;29;20197;-91
2021/11/27 01:30:27;;;;;;;4.97;1.87;;;4.40;99.90;;;;;;4055050;29;20173;-91
2021/11/27 01:32:27;;;;;;;2.63;1.70;;;4.30;99.90;;;;;;4055104;29;20181;-90
2021/11/27 01:34:29;;;;;;;4.83;1.87;;;4.20;99.90;;;;;;4054950;29;20291;-91
2021/11/27 01:36:30;;;;;;;4.87;1.90;;;4.20;99.90;;;;;;4055897;29;20177;-90
2021/11/27 01:38:31;;;;;;;4.40;1.93;;;4.30;99.90;;;;;;4055387;29;20208;-91
2021/11/27 01:40:34;;;;;;;4.40;1.77;;;4.20;99.90;;;;;;4054651;29;20185;-91
2021/11/27 01:42:35;;;;;;;4.17;1.90;;;4.20;99.90;;;;;;4054298;29;20603;-90
2021/11/27 01:44:36;;;;;;;4.27;2.10;;;4.20;99.90;;;;;;4054282;29;20257;-91
2021/11/27 01:46:38;;;;;;;3.97;2.00;;;4.10;99.90;;;;;;4054701;29;20188;-90
2021/11/27 01:48:39;;;;;;;5.23;2.20;;;4.10;99.90;;;;;;4054609;29;20181;-90
2021/11/27 01:50:49;;;;;;;7.27;2.10;;;4.10;99.90;;;;;;4069874;29;20176;-90
2021/11/27 01:52:50;;;;;;;8.40;2.37;;;4.00;99.90;;;;;;4054450;29;20274;-90
2021/11/27 01:54:51;;;;;;;5.50;2.63;;;3.90;99.90;;;;;;4055442;29;20765;-91
2021/11/27 01:56:55;;;;;;;9.20;2.77;;;3.80;99.90;;;;;;4053883;29;20276;-90
2021/11/27 01:58:59;;;;;;;4.57;2.83;;;3.90;99.90;;;;;;4054005;29;20248;-90
2021/11/27 02:01:07;;;;;;;7.30;2.80;;;3.90;99.90;;;;;;4070567;29;20219;-91
2021/11/27 02:03:09;;;;;;;7.33;3.20;;;3.80;99.90;;;;;;4070603;29;20176;-94
2021/11/27 02:05:29;;;;;;;11.27;3.57;;;3.70;99.90;;;;;;4056641;29;20228;-90
2021/11/27 02:07:30;;;;;;;7.77;3.13;;;3.70;99.90;;;;;;4054575;29;20184;-90
2021/11/27 02:09:33;;;;;;;8.17;3.60;;;3.60;99.90;;;;;;4054369;29;20309;-91
2021/11/27 02:11:37;;;;;;;14.37;4.00;;;3.60;99.90;;;;;;4054330;29;20176;-90
2021/11/27 02:13:39;;;;;;;11.50;3.57;;;3.60;99.90;;;;;;4053948;29;20565;-90
2021/11/27 02:15:43;;;;;;;12.87;3.87;;;3.70;99.90;;;;;;4055291;29;20181;-94
2021/11/27 02:17:44;;;;;;;9.57;3.70;;;3.60;99.90;;;;;;4054568;29;20186;-91
2021/11/27 02:19:47;;;;;;;10.90;3.77;;;3.50;99.90;;;;;;4054934;29;20177;-91
2021/11/27 02:21:49;;;;;;;11.67;3.83;;;3.50;99.90;;;;;;4055199;29;20558;-91
2021/11/27 02:23:52;;;;;;;10.13;4.10;;;3.50;99.90;;;;;;4053790;29;20177;-90
2021/11/27 02:25:53;;;;;;;12.87;3.47;;;3.60;99.90;;;;;;4053840;29;20265;-92
2021/11/27 02:27:54;;;;;;;17.20;4.03;;;3.40;99.90;;;;;;4054891;29;20594;-91
2021/11/27 02:29:55;;;;;;;10.57;3.87;;;3.40;99.90;;;;;;4069952;29;20188;-91
2021/11/27 02:31:58;;;;;;;15.13;3.93;;;3.50;99.90;;;;;;4053988;29;20612;-91
2021/11/27 02:33:59;;;;;;;15.70;4.40;;;3.40;99.90;;;;;;4069859;29;20203;-90
2021/11/27 02:36:00;;;;;;;10.57;4.00;;;3.50;99.90;;;;;;4069475;29;20196;-91
2021/11/27 02:38:00;;;;;;;14.87;4.83;;;3.40;99.90;;;;;;4053559;29;20200;-90
2021/11/27 02:40:04;;;;;;;11.53;4.23;;;3.40;99.90;;;;;;4055186;29;20165;-91
2021/11/27 02:42:06;;;;;;;17.07;4.73;;;3.30;99.90;;;;;;4054036;29;20211;-91
2021/11/27 02:44:09;;;;;;;16.23;4.20;;;3.20;99.90;;;;;;4069308;29;20196;-90
2021/11/27 02:46:11;;;;;;;12.93;4.83;;;3.30;99.90;;;;;;4053535;29;20165;-91
2021/11/27 02:48:11;;;;;;;24.57;5.10;;;3.40;99.90;;;;;;4053735;29;20205;-91
2021/11/27 02:50:13;;;;;;;15.73;4.30;;;3.40;99.90;;;;;;4069243;29;20545;-90
2021/11/27 02:52:14;;;;;;;13.63;4.73;;;3.40;99.90;;;;;;4053779;29;20634;-90
2021/11/27 02:54:15;;;;;;;22.27;4.67;;;3.50;99.90;;;;;;4053963;29;20205;-90
2021/11/27 02:56:17;;;;;;;15.17;4.33;;;3.50;99.90;;;;;;4053712;29;20173;-90
2021/11/27 02:58:17;;;;;;;15.93;4.83;;;3.30;99.90;;;;;;4053953;29;20197;-91
2021/11/27 03:00:22;;;;;;;24.27;5.03;;;3.30;99.90;;;;;;4054064;29;20272;-92
2021/11/27 03:02:23;;;;;;;14.00;4.30;;;3.20;99.90;;;;;;4053308;29;20595;-90
2021/11/27 03:04:27;;;;;;;17.23;4.20;;;3.10;99.90;;;;;;4053508;29;20193;-91
2021/11/27 03:06:28;;;;;;;17.93;4.03;;;3.00;99.90;;;;;;4053429;29;20316;-92
2021/11/27 03:08:29;;;;;;;20.27;4.20;;;2.90;99.90;;;;;;4053158;29;20177;-91
2021/11/27 03:10:30;;;;;;;16.70;4.33;;;2.80;99.90;;;;;;4053306;29;20173;-91
2021/11/27 03:12:31;;;;;;;21.13;4.70;;;2.80;99.90;;;;;;4053309;29;20177;-90
2021/11/27 03:14:32;;;;;;;13.77;3.90;;;2.80;99.90;;;;;;4053276;29;20196;-91
2021/11/27 03:16:35;;;;;;;17.97;4.53;;;2.80;99.90;;;;;;4053015;29;20169;-91
2021/11/27 03:18:36;;;;;;;17.53;3.90;;;2.80;99.90;;;;;;4052923;29;20225;-92
2021/11/27 03:20:38;;;;;;;14.70;3.90;;;2.70;99.90;;;;;;4053153;29;20637;-90
2021/11/27 03:22:40;;;;;;;17.73;4.43;;;2.50;99.90;;;;;;4068629;29;20197;-91
2021/11/27 03:24:41;;;;;;;14.27;4.03;;;2.50;99.90;;;;;;4053017;29;20197;-90
2021/11/27 03:26:43;;;;;;;20.23;4.00;;;2.50;99.90;;;;;;4053283;29;20212;-91
2021/11/27 03:28:45;;;;;;;14.23;3.93;;;2.30;99.90;;;;;;4053212;29;20277;-91
2021/11/27 03:30:46;;;;;;;23.90;4.13;;;2.30;99.90;;;;;;4084485;29;20200;-90
2021/11/27 03:32:48;;;;;;;18.70;4.70;;;2.30;99.90;;;;;;4069426;29;20248;-90
2021/11/27 03:34:54;;;;;;;19.13;4.67;;;2.30;99.90;;;;;;4053234;29;20200;-89
2021/11/27 03:36:58;;;;;;;17.53;4.43;;;2.40;99.90;;;;;;4069125;29;20180;-90
2021/11/27 03:38:59;;;;;;;15.00;4.27;;;2.40;99.90;;;;;;4053034;29;20713;-94
2021/11/27 03:41:01;;;;;;;18.17;4.80;;;2.40;99.90;;;;;;4053519;29;20195;-91
2021/11/27 03:43:02;;;;;;;22.97;4.47;;;2.40;99.90;;;;;;4052910;29;20181;-91
2021/11/27 03:45:06;;;;;;;17.33;4.50;;;2.30;99.90;;;;;;4052746;29;20193;-90
2021/11/27 03:47:08;;;;;;;23.53;4.73;;;2.20;99.90;;;;;;4052818;29;20192;-91
2021/11/27 03:49:08;;;;;;;24.27;4.43;;;2.30;99.90;;;;;;4053099;29;20169;-90
2021/11/27 03:51:16;;;;;;;22.37;4.83;;;2.30;99.90;;;;;;4053101;29;20188;-90
2021/11/27 03:53:23;;;;;;;20.70;4.40;;;2.40;99.90;;;;;;4052919;29;20173;-90
2021/11/27 03:55:24;;;;;;;21.20;4.83;;;2.40;99.90;;;;;;4052388;29;20288;-89
2021/11/27 03:57:26;;;;;;;18.93;5.00;;;2.60;99.90;;;;;;4052786;29;20173;-90
2021/11/27 03:59:27;;;;;;;27.37;5.30;;;2.70;99.90;;;;;;4052770;29;20723;-90
2021/11/27 04:01:28;;;;;;;30.53;5.20;;;2.80;99.90;;;;;;4068668;29;20247;-91
2021/11/27 04:03:30;;;;;;;19.93;4.50;;;2.80;99.90;;;;;;4053072;29;20180;-90
2021/11/27 04:05:39;;;;;;;21.50;5.13;;;2.80;99.90;;;;;;4052690;29;20193;-90
2021/11/27 04:07:40;;;;;;;21.50;5.30;;;2.90;99.90;;;;;;4052756;29;20176;-90
2021/11/27 04:09:41;;;;;;;21.27;5.20;;;2.90;99.90;;;;;;4068506;29;20202;-91
2021/11/27 04:11:42;;;;;;;19.70;4.67;;;2.80;99.90;;;;;;4052803;29;20554;-91
2021/11/27 04:13:53;;;;;;;18.63;4.83;;;2.60;99.90;;;;;;4054250;29;20676;-90
2021/11/27 04:15:55;;;;;;;15.63;4.73;;;2.30;99.90;;;;;;4052550;29;20173;-90
2021/11/27 04:17:56;;;;;;;14.27;4.23;;;2.30;99.90;;;;;;4068365;29;20668;-90
2021/11/27 04:20:00;;;;;;;22.27;5.33;;;2.20;99.90;;;;;;4068496;29;20203;-90
2021/11/27 04:22:01;;;;;;;23.43;4.77;;;2.10;99.90;;;;;;4056036;29;20636;-91
2021/11/27 04:24:03;;;;;;;18.13;4.17;;;2.10;99.90;;;;;;4055715;29;20208;-91
2021/11/27 04:26:04;;;;;;;20.27;4.13;;;2.00;99.90;;;;;;4056319;29;20215;-90
2021/11/27 04:28:05;;;;;;;19.60;4.00;;;2.10;99.90;;;;;;4071273;29;20188;-90
2021/11/27 04:30:11;;;;;;;24.83;4.23;;;2.20;99.90;;;;;;4071507;29;20203;-92
2021/11/27 04:32:15;;;;;;;16.73;4.10;;;2.30;99.90;;;;;;4055762;29;20301;-91
2021/11/27 04:34:28;;;;;;;24.07;4.37;;;2.30;99.90;;;;;;4056774;29;20200;-90
2021/11/27 04:36:28;;;;;;;18.77;4.20;;;2.30;99.90;;;;;;4055521;29;20177;-90
2021/11/27 04:38:29;;;;;;;15.40;3.70;;;2.40;99.90;;;;;;4055662;29;20745;-91
2021/11/27 04:40:32;;;;;;;14.80;3.73;;;2.30;99.90;;;;;;4055603;29;20181;-91
2021/11/27 04:42:33;;;;;;;15.53;3.73;;;2.20;99.90;;;;;;4055867;29;20169;-91
2021/11/27 04:44:35;;;;;;;16.73;3.73;;;2.10;99.90;;;;;;4055644;29;20273;-91
2021/11/27 04:46:36;;;;;;;15.07;4.40;;;2.10;99.90;;;;;;4071294;29;20663;-92
2021/11/27 04:48:37;;;;;;;14.47;4.10;;;2.10;99.90;;;;;;4055470;29;20177;-90
2021/11/27 04:50:40;;;;;;;14.87;4.07;;;2.00;99.90;;;;;;4055190;29;20181;-90
2021/11/27 04:52:46;;;;;;;13.50;4.40;;;1.90;99.90;;;;;;4055504;29;20182;-91
2021/11/27 04:54:48;;;;;;;16.50;4.13;;;2.00;99.90;;;;;;4055139;29;20248;-91
2021/11/27 04:56:49;;;;;;;22.77;4.33;;;2.00;99.90;;;;;;4056174;29;20592;-90
2021/11/27 04:58:50;;;;;;;16.40;4.30;;;2.00;99.90;;;;;;4055015;29;20303;-90
2021/11/27 05:00:54;;;;;;;14.50;3.97;;;1.90;99.90;;;;;;4054986;29;20689;-91
2021/11/27 05:03:05;;;;;;;19.70;4.23;;;2.00;99.90;;;;;;4056298;29;20183;-91
2021/11/27 05:05:06;;;;;;;20.57;4.60;;;2.10;99.90;;;;;;4070351;29;20192;-91
2021/11/27 05:07:07;;;;;;;16.30;3.93;;;2.20;99.90;;;;;;4070334;29;20738;-91
2021/11/27 05:09:08;;;;;;;14.70;4.33;;;2.30;99.90;;;;;;4055300;29;20181;-91
2021/11/27 05:11:09;;;;;;;13.93;4.13;;;2.30;99.90;;;;;;4055382;29;20171;-91
2021/11/27 05:13:10;;;;;;;15.47;4.37;;;2.10;99.90;;;;;;4070443;29;20179;-91
2021/11/27 05:15:13;;;;;;;10.77;3.93;;;2.00;99.90;;;;;;4071753;29;20192;-91
2021/11/27 05:17:17;;;;;;;18.17;4.10;;;1.80;99.90;;;;;;4056047;29;20538;-90
2021/11/27 05:19:18;;;;;;;12.90;4.13;;;1.70;99.90;;;;;;4055172;29;20295;-95
2021/11/27 05:21:35;;;;;;;10.40;3.80;;;1.60;99.90;;;;;;4057316;29;20192;-90
2021/11/27 05:23:37;;;;;;;13.97;3.83;;;1.70;99.90;;;;;;4055301;29;20271;-90
2021/11/27 05:26:10;;;;;;;17.13;4.07;;;1.70;99.90;;;;;;4058839;29;20188;-91
2021/11/27 05:28:29;;;;;;;13.63;3.47;;;1.90;99.90;;;;;;4073369;29;20195;-91
2021/11/27 05:30:49;;;;;;;18.70;4.13;;;2.10;99.90;;;;;;4057263;29;20176;-90
2021/11/27 05:35:08;;;;;;;20.23;3.77;;;2.10;99.90;;;;;;4070290;29;20208;-91
2021/11/27 05:37:09;;;;;;;27.03;3.67;;;2.30;99.90;;;;;;4055049;29;20174;-91
2021/11/27 05:39:12;;;;;;;15.93;3.40;;;2.30;99.90;;;;;;4056362;29;20762;-91
2021/11/27 05:41:15;;;;;;;17.27;3.97;;;2.30;99.90;;;;;;4055360;29;20173;-91
2021/11/27 05:43:16;;;;;;;17.17;3.60;;;2.60;99.90;;;;;;4054673;29;20271;-90
2021/11/27 05:45:16;;;;;;;11.80;3.17;;;2.70;99.90;;;;;;4055179;29;20265;-91
2021/11/27 05:47:19;;;;;;;12.47;3.80;;;2.50;99.90;;;;;;4070083;29;20275;-91
2021/11/27 05:49:22;;;;;;;16.27;3.70;;;2.60;99.90;;;;;;4070265;29;20176;-90
2021/11/27 05:51:41;;;;;;;16.53;3.73;;;2.70;99.90;;;;;;4056967;29;20272;-91
2021/11/27 05:53:42;;;;;;;13.60;3.80;;;2.80;99.90;;;;;;4055034;29;20286;-90
2021/11/27 05:55:44;;;;;;;19.87;3.80;;;2.80;99.90;;;;;;4054447;29;20177;-91
2021/11/27 05:57:45;;;;;;;18.83;3.50;;;2.90;99.90;;;;;;4054233;29;20181;-90
2021/11/27 05:59:46;;;;;;;16.57;4.10;;;3.00;99.90;;;;;;4054457;29;20196;-91
2021/11/27 06:01:47;;;;;;;10.67;3.97;;;2.80;99.90;;;;;;4055359;29;20196;-89
2021/11/27 06:03:48;;;;;;;18.67;3.93;;;2.60;99.90;;;;;;4056387;29;20183;-89
2021/11/27 06:05:49;;;;;;;12.00;3.73;;;2.50;99.90;;;;;;4053895;29;20173;-91
2021/11/27 06:07:50;;;;;;;19.43;4.13;;;2.30;99.90;;;;;;4054036;29;20249;-91
2021/11/27 06:09:50;;;;;;;10.57;3.50;;;2.40;99.90;;;;;;4054791;29;20649;-91
2021/11/27 06:11:51;;;;;;;15.93;3.67;;;2.40;99.90;;;;;;4054991;29;20187;-91
2021/11/27 06:13:53;;;;;;;11.67;3.63;;;2.50;99.90;;;;;;4054844;29;20173;-91
2021/11/27 06:15:53;;;;;;;17.13;3.93;;;2.40;99.90;;;;;;4070300;29;20180;-90
2021/11/27 06:17:54;;;;;;;18.53;4.10;;;2.50;99.90;;;;;;4053812;29;20226;-90
2021/11/27 06:19:55;;;;;;;17.13;4.13;;;2.50;99.90;;;;;;4054295;29;20192;-91
2021/11/27 06:21:56;;;;;;;29.00;4.47;;;2.60;99.90;;;;;;4069985;29;20187;-91
2021/11/27 06:23:57;;;;;;;14.53;3.70;;;2.60;99.90;;;;;;4053848;29;20654;-90
2021/11/27 06:25:58;;;;;;;14.23;3.40;;;2.50;99.90;;;;;;4053893;29;20181;-91
2021/11/27 06:27:59;;;;;;;12.27;3.30;;;2.40;99.90;;;;;;4069449;29;20225;-91
2021/11/27 06:29:59;;;;;;;12.07;3.27;;;2.30;99.90;;;;;;4056482;29;20244;-91
2021/11/27 06:32:01;;;;;;;12.63;3.83;;;2.20;99.90;;;;;;4055430;29;20256;-91
2021/11/27 06:34:02;;;;;;;14.40;3.33;;;2.10;99.90;;;;;;4069828;29;20192;-90
2021/11/27 06:36:03;;;;;;;18.07;3.60;;;2.20;99.90;;;;;;4054245;29;20542;-91
2021/11/27 06:38:04;;;;;;;13.33;3.23;;;2.30;99.90;;;;;;4069294;29;20216;-96
2021/11/27 06:40:06;;;;;;;11.50;3.37;;;2.40;99.90;;;;;;4069905;29;20669;-90
2021/11/27 06:42:11;;;;;;;13.27;3.03;;;2.40;99.90;;;;;;4054214;29;20591;-91
2021/11/27 06:44:34;;;;;;;17.93;3.60;;;2.40;99.90;;;;;;4055633;29;20192;-92
2021/11/27 06:46:35;;;;;;;17.90;3.73;;;2.50;99.90;;;;;;4053375;29;20667;-91
2021/11/27 06:48:36;;;;;;;18.37;3.47;;;2.40;99.90;;;;;;4053398;29;20645;-91
2021/11/27 06:50:37;;;;;;;14.87;3.57;;;2.50;99.90;;;;;;4054948;29;20263;-90
2021/11/27 06:52:38;;;;;;;12.67;3.33;;;2.50;99.90;;;;;;4069594;29;20641;-90
2021/11/27 06:54:40;;;;;;;12.57;3.57;;;2.60;99.90;;;;;;4054379;29;20189;-91
2021/11/27 06:56:40;;;;;;;15.83;3.30;;;2.60;99.90;;;;;;4054287;29;20279;-90
2021/11/27 06:58:41;;;;;;;13.13;3.87;;;2.60;99.90;;;;;;4054081;29;20232;-91
2021/11/27 07:01:08;;;;;;;13.13;3.20;;;2.70;99.90;;;;;;4050712;29;20661;-91
2021/11/27 07:03:29;;;;;;;15.10;3.20;;;2.80;99.90;;;;;;4071571;29;20558;-90
2021/11/27 07:05:53;;;;;;;20.73;3.40;;;2.80;99.90;;;;;;4054775;29;20180;-90
2021/11/27 07:07:56;;;;;;;12.60;3.17;;;2.80;99.90;;;;;;4055340;29;20256;-90
2021/11/27 07:10:09;;;;;;;13.83;3.97;;;2.90;99.90;;;;;;4054567;29;20177;-91
2021/11/27 07:12:16;;;;;;;15.07;3.63;;;2.80;99.90;;;;;;4055231;29;20176;-96
2021/11/27 07:14:22;;;;;;;15.70;3.23;;;2.70;99.90;;;;;;4053792;29;20677;-91
2021/11/27 07:16:23;;;;;;;18.63;3.03;;;2.70;99.90;;;;;;4069018;29;20271;-91
2021/11/27 07:18:23;;;;;;;15.60;2.93;;;2.80;99.90;;;;;;4054843;29;20217;-91
2021/11/27 07:20:24;;;;;;;9.93;3.60;;;2.80;99.90;;;;;;4054185;29;20603;-95
2021/11/27 07:22:25;;;;;;;13.77;3.23;;;3.00;99.90;;;;;;4068638;29;20687;-92
2021/11/27 07:24:27;;;;;;;13.93;3.73;;;3.10;99.90;;;;;;4068859;29;20287;-92
2021/11/27 07:26:27;;;;;;;13.47;3.40;;;3.10;99.90;;;;;;4053885;29;20185;-91
2021/11/27 07:28:32;;;;;;;18.87;3.60;;;3.10;99.90;;;;;;4053509;29;20614;-92
2021/11/27 07:30:33;;;;;;;13.07;3.77;;;3.10;99.90;;;;;;4053388;29;20276;-91
2021/11/27 07:32:34;;;;;;;9.80;3.37;;;3.20;99.90;;;;;;4054474;29;20169;-91
2021/11/27 07:34:35;;;;;;;14.33;3.27;;;3.30;99.90;;;;;;4053944;29;20325;-91
2021/11/27 07:36:37;;;;;;;15.77;3.50;;;3.40;99.90;;;;;;4068692;29;20582;-91
2021/11/27 07:38:38;;;;;;;18.83;3.47;;;3.40;99.90;;;;;;4052974;29;20219;-91
2021/11/27 07:40:40;;;;;;;9.47;3.20;;;3.50;99.90;;;;;;4052943;29;20172;-91
2021/11/27 07:42:40;;;;;;;14.20;3.57;;;3.50;99.90;;;;;;4053279;29;20185;-91
2021/11/27 07:45:05;;;;;;;13.20;3.60;;;3.50;99.90;;;;;;4069521;29;20211;-91
2021/11/27 07:47:26;;;;;;;16.50;3.43;;;3.50;99.90;;;;;;4070856;29;20184;-91
2021/11/27 07:49:45;;;;;;;11.93;3.77;;;3.50;99.90;;;;;;4072634;29;20276;-91
2021/11/27 07:52:24;;;;;;;11.20;3.63;;;3.50;99.90;;;;;;4037799;29;20177;-91
2021/11/27 07:54:26;;;;;;;11.73;3.60;;;3.60;99.90;;;;;;4022100;29;20198;-90
2021/11/27 07:56:30;;;;;;;15.13;4.00;;;3.50;99.90;;;;;;4026130;29;20186;-91
2021/11/27 07:58:31;;;;;;;13.23;3.77;;;3.50;99.90;;;;;;4056393;29;20217;-91
2021/11/27 08:00:32;;;;;;;10.03;3.60;;;3.60;99.90;;;;;;4056090;29;20183;-91
2021/11/27 08:02:32;;;;;;;14.50;3.57;;;3.60;99.90;;;;;;4056146;29;20177;-92
2021/11/27 08:04:33;;;;;;;16.27;3.93;;;3.50;99.90;;;;;;4056599;29;20204;-91
2021/11/27 08:06:34;;;;;;;15.50;4.27;;;3.60;99.90;;;;;;4056614;29;20181;-91
2021/11/27 08:08:35;;;;;;;12.23;3.93;;;3.70;99.90;;;;;;4055993;29;20195;-92
2021/11/27 08:10:36;;;;;;;17.47;3.67;;;3.80;99.90;;;;;;4056576;29;20183;-92
2021/11/27 08:12:37;;;;;;;16.60;4.47;;;3.80;99.90;;;;;;4056675;29;20631;-91
2021/11/27 08:14:38;;;;;;;17.07;3.77;;;3.80;99.90;;;;;;4055844;29;20209;-91
2021/11/27 08:16:39;;;;;;;9.80;3.27;;;3.80;99.90;;;;;;4071905;29;20679;-91
2021/11/27 08:18:39;;;;;;;13.93;4.33;;;3.90;99.90;;;;;;4057083;29;20265;-93
2021/11/27 08:20:40;;;;;;;20.33;3.63;;;3.90;99.90;;;;;;4057319;29;20237;-91
2021/11/27 08:22:43;;;;;;;13.70;3.93;;;3.80;99.90;;;;;;4055719;29;20677;-92
2021/11/27 08:24:44;;;;;;;12.30;3.67;;;4.00;99.90;;;;;;4071294;29;20278;-91
2021/11/27 08:26:44;;;;;;;19.37;3.83;;;4.00;99.90;;;;;;4056168;29;20185;-92
2021/11/27 08:28:46;;;;;;;13.90;4.50;;;4.00;99.90;;;;;;4071091;29;20275;-91
2021/11/27 08:30:47;;;;;;;12.53;3.93;;;4.00;99.90;;;;;;4055538;29;20184;-92
2021/11/27 08:32:49;;;;;;;15.97;4.10;;;4.00;99.90;;;;;;4072185;29;20184;-91
2021/11/27 08:34:50;;;;;;;12.77;5.03;;;4.00;99.90;;;;;;4055811;29;20237;-91
2021/11/27 08:36:51;;;;;;;12.63;4.20;;;4.00;99.90;;;;;;4055310;29;20199;-93
2021/11/27 08:38:52;;;;;;;17.40;4.67;;;4.00;99.90;;;;;;4056329;29;20276;-91
2021/11/27 08:40:53;;;;;;;13.40;4.27;;;3.90;99.90;;;;;;4071252;29;20188;-91
2021/11/27 08:42:56;;;;;;;17.80;4.50;;;3.90;99.90;;;;;;4056142;29;20172;-95
2021/11/27 08:44:57;;;;;;;12.17;4.37;;;3.80;99.90;;;;;;4071671;29;20192;-91
2021/11/27 08:46:58;;;;;;;16.23;4.67;;;3.70;99.90;;;;;;4071184;29;20191;-92
2021/11/27 08:48:58;;;;;;;14.07;5.00;;;3.60;99.90;;;;;;4056971;29;20191;-92
2021/11/27 08:51:00;;;;;;;15.50;4.10;;;3.70;99.90;;;;;;4055258;29;20180;-92
2021/11/27 08:53:00;;;;;;;11.90;4.30;;;3.70;99.90;;;;;;4055510;29;20233;-92
2021/11/27 08:55:02;;;;;;;17.27;4.73;;;3.70;99.90;;;;;;4056080;29;20197;-92
2021/11/27 08:57:03;;;;;;;14.70;4.40;;;3.60;99.90;;;;;;4056341;29;20173;-91
2021/11/27 08:59:04;;;;;;;11.53;4.53;;;3.50;99.90;;;;;;4055172;29;20263;-91
2021/11/27 09:01:07;;;;;;;8.97;3.67;;;3.40;99.90;;;;;;4054923;29;20173;-92
2021/11/27 09:03:08;;;;;;;14.57;4.33;;;3.30;99.90;;;;;;4071022;29;20172;-91
2021/11/27 09:05:10;;;;;;;13.10;4.03;;;3.40;99.90;;;;;;4055931;29;20569;-91
2021/11/27 09:07:11;;;;;;;24.13;4.03;;;3.50;99.90;;;;;;4054437;29;20670;-91
2021/11/27 09:09:12;;;;;;;15.77;4.57;;;3.50;99.90;;;;;;4070908;29;20172;-92
2021/11/27 09:11:16;;;;;;;13.97;4.17;;;3.40;99.90;;;;;;4055539;29;20173;-91
2021/11/27 09:13:17;;;;;;;10.47;3.70;;;3.40;99.90;;;;;;4055980;29;20181;-91
2021/11/27 09:15:18;;;;;;;13.90;4.40;;;3.50;99.90;;;;;;4055202;29;20235;-91
2021/11/27 09:17:19;;;;;;;14.63;4.53;;;3.50;99.90;;;;;;4055155;29;20188;-91
2021/11/27 09:19:21;;;;;;;16.93;5.03;;;3.30;99.90;;;;;;4055336;29;20225;-91
2021/11/27 09:21:22;;;;;;;12.70;4.70;;;3.30;99.90;;;;;;4055688;29;20184;-91
2021/11/27 09:23:23;;;;;;;13.70;4.67;;;3.60;99.90;;;;;;4070601;29;20192;-91
2021/11/27 09:25:25;;;;;;;15.80;5.40;;;4.10;99.90;;;;;;4055099;29;20682;-91
2021/11/27 09:27:26;;;;;;;20.50;6.83;;;4.50;99.90;;;;;;4054938;29;20181;-90
2021/11/27 09:29:27;;;;;;;23.30;7.37;;;5.10;99.90;;;;;;4054848;29;20199;-91
2021/11/27 09:31:28;;;;;;;20.50;6.60;;;5.20;99.90;;;;;;4054944;29;20221;-90
2021/11/27 09:33:29;;;;;;;17.57;6.13;;;5.20;99.90;;;;;;4055838;29;20209;-90
2021/11/27 09:35:30;;;;;;;16.97;6.10;;;4.90;99.90;;;;;;4071395;29;20700;-91
2021/11/27 09:37:31;;;;;;;19.13;5.90;;;4.60;99.90;;;;;;4055144;29;20228;-91
2021/11/27 09:39:33;;;;;;;22.13;5.87;;;4.20;99.90;;;;;;4055452;29;20258;-91
2021/11/27 09:41:34;;;;;;;23.80;6.30;;;4.00;99.90;;;;;;4055071;29;20185;-92
2021/11/27 09:43:36;;;;;;;21.10;7.43;;;3.80;99.90;;;;;;4054613;29;20226;-90
2021/11/27 09:45:39;;;;;;;21.17;7.73;;;3.60;99.90;;;;;;4054914;29;20188;-91
2021/11/27 09:47:44;;;;;;;18.80;6.70;;;3.60;99.90;;;;;;4054683;29;20181;-90
2021/11/27 09:49:46;;;;;;;19.60;7.67;;;3.70;99.90;;;;;;4055074;29;20269;-91
2021/11/27 09:51:55;;;;;;;22.23;8.03;;;3.90;99.90;;;;;;4054639;29;20256;-91
2021/11/27 09:53:58;;;;;;;12.73;6.23;;;4.40;99.90;;;;;;4054654;29;20199;-91
2021/11/27 09:56:02;;;;;;;14.27;6.00;;;4.90;99.90;;;;;;4054280;29;20219;-91
2021/11/27 09:58:02;;;;;;;21.23;7.27;;;5.30;99.90;;;;;;4070231;29;20270;-90
2021/11/27 10:00:04;;;;;;;14.60;7.10;;;5.10;99.90;;;;;;4054343;29;20177;-91
2021/11/27 10:02:17;;;;;;;20.77;7.60;;;5.00;99.90;;;;;;4072549;29;20652;-90
2021/11/27 10:04:21;;;;;;;22.43;7.33;;;4.50;99.90;;;;;;4054045;29;20204;-90
2021/11/27 10:06:22;;;;;;;20.13;7.53;;;4.40;99.90;;;;;;4069944;29;20665;-91
2021/11/27 10:08:24;;;;;;;19.40;7.73;;;4.10;99.90;;;;;;4054092;29;20193;-90
2021/11/27 10:10:25;;;;;;;16.30;6.80;;;4.20;99.90;;;;;;4069619;29;20187;-91
2021/11/27 10:12:26;;;;;;;20.40;7.30;;;4.00;99.90;;;;;;4055137;29;20543;-90
2021/11/27 10:14:26;;;;;;;17.80;7.60;;;4.00;99.90;;;;;;4054501;29;20275;-90
2021/11/27 10:16:28;;;;;;;16.97;6.67;;;4.40;99.90;;;;;;4053970;29;20185;-91
2021/11/27 10:18:29;;;;;;;27.07;7.73;;;4.40;99.90;;;;;;4053370;29;20219;-91
2021/11/27 10:20:34;;;;;;;20.33;7.47;;;4.00;99.90;;;;;;4053886;29;20612;-91
2021/11/27 10:22:38;;;;;;;18.80;7.87;;;3.80;99.90;;;;;;4069730;29;20177;-91
2021/11/27 10:24:39;;;;;;;18.33;6.93;;;3.70;99.90;;;;;;4053972;29;20686;-90
2021/11/27 10:26:40;;;;;;;16.87;7.30;;;4.00;99.90;;;;;;4054125;29;20187;-91
2021/11/27 10:28:41;;;;;;;16.13;6.73;;;4.20;99.90;;;;;;4053733;29;20235;-91
2021/11/27 10:30:49;;;;;;;20.13;6.70;;;4.10;99.90;;;;;;4053998;29;20180;-96
2021/11/27 10:32:49;;;;;;;16.93;6.67;;;4.40;99.90;;;;;;4069889;29;20275;-90
2021/11/27 10:34:54;;;;;;;17.70;6.33;;;4.30;99.90;;;;;;4053950;29;20201;-90
2021/11/27 10:36:55;;;;;;;15.43;7.10;;;4.10;99.90;;;;;;4054076;29;20192;-91
2021/11/27 10:39:05;;;;;;;22.13;6.63;;;3.90;99.90;;;;;;4054003;29;20761;-91
2021/11/27 10:41:07;;;;;;;18.40;6.87;;;3.90;99.90;;;;;;4053820;29;20180;-91
2021/11/27 10:43:10;;;;;;;17.43;6.87;;;4.10;99.90;;;;;;4054174;29;20180;-91